createdAt,value
2017-02-21T00:00:49.397Z,1000.57
2017-02-21T00:01:49.417Z,1000.34
2017-02-21T00:02:49.438Z,1000.43
2017-02-21T00:03:49.459Z,1000.43
2017-02-21T00:04:49.480Z,1000.48
2017-02-21T00:05:49.500Z,1000.44
2017-02-21T00:06:49.522Z,1000.5
2017-02-21T00:07:49.543Z,1000.46
2017-02-21T00:08:49.564Z,1000.56
2017-02-21T00:09:49.585Z,1000.53
2017-02-21T00:11:49.628Z,1000.52
2017-02-21T00:12:49.648Z,1000.51
2017-02-21T00:13:49.668Z,1000.44
2017-02-21T00:14:49.690Z,1000.47
2017-02-21T00:15:49.711Z,1000.45
2017-02-21T00:16:49.730Z,1000.48
2017-02-21T00:17:49.752Z,1000.56
2017-02-21T00:18:49.774Z,1000.57
2017-02-21T00:19:49.793Z,1000.58
2017-02-21T00:20:49.814Z,1000.54
2017-02-21T00:21:49.838Z,1000.51
2017-02-21T00:22:49.856Z,1000.48
2017-02-21T00:23:49.876Z,1000.48
2017-02-21T00:24:49.897Z,1000.41
2017-02-21T00:25:49.918Z,1000.42
2017-02-21T00:26:49.939Z,1000.35
2017-02-21T00:27:49.959Z,1000.43
2017-02-21T00:28:49.980Z,1000.47
2017-02-21T00:29:50.001Z,1000.5
2017-02-21T00:30:50.021Z,1000.47
2017-02-21T00:31:50.043Z,1000.5
2017-02-21T00:32:50.064Z,1000.33
2017-02-21T00:33:50.084Z,1000.4
2017-02-21T00:34:50.105Z,1000.48
2017-02-21T00:35:50.126Z,1000.38
2017-02-21T00:36:50.149Z,1000.41
2017-02-21T00:37:50.168Z,1000.4
2017-02-21T00:38:50.188Z,1000.44
2017-02-21T00:39:50.209Z,1000.38
2017-02-21T00:40:50.230Z,1000.45
2017-02-21T00:41:50.252Z,1000.29
2017-02-21T00:43:50.292Z,1000.4
2017-02-21T00:44:50.313Z,1000.34
2017-02-21T00:45:50.333Z,1000.35
2017-02-21T00:46:50.354Z,1000.33
2017-02-21T00:47:50.376Z,1000.37
2017-02-21T00:48:50.396Z,1000.34
2017-02-21T00:49:50.416Z,1000.34
2017-02-21T00:50:50.438Z,1000.32
2017-02-21T00:51:50.459Z,1000.36
2017-02-21T00:52:50.478Z,1000.43
2017-02-21T00:53:50.500Z,1000.52
2017-02-21T00:54:50.524Z,1000.5
2017-02-21T00:55:50.544Z,1000.59
2017-02-21T00:56:50.562Z,1000.61
2017-02-21T00:57:50.583Z,1000.53
2017-02-21T00:59:50.626Z,1000.57
2017-02-21T01:00:50.646Z,1000.43
2017-02-21T01:01:50.667Z,1000.56
2017-02-21T01:02:50.687Z,1000.43
2017-02-21T01:03:50.708Z,1000.46
2017-02-21T01:04:50.729Z,1000.53
2017-02-21T01:05:50.788Z,1000.59
2017-02-21T01:06:50.771Z,1000.51
2017-02-21T01:07:50.791Z,1000.51
2017-02-21T01:08:50.812Z,1000.53
2017-02-21T01:09:50.834Z,1000.61
2017-02-21T01:10:50.855Z,1000.59
2017-02-21T01:11:50.875Z,1000.69
2017-02-21T01:12:50.896Z,1000.52
2017-02-21T01:13:50.917Z,1000.5
2017-02-21T01:15:50.959Z,1000.49
2017-02-21T01:16:50.979Z,1000.62
2017-02-21T01:17:51.000Z,1000.6
2017-02-21T01:18:51.020Z,1000.58
2017-02-21T01:19:51.042Z,1000.57
2017-02-21T01:20:51.062Z,1000.64
2017-02-21T01:21:51.083Z,1000.63
2017-02-21T01:22:51.104Z,1000.6
2017-02-21T01:23:51.124Z,1000.51
2017-02-21T01:24:51.146Z,1000.51
2017-02-21T01:25:51.166Z,1000.52
2017-02-21T01:26:51.187Z,1000.51
2017-02-21T01:27:51.207Z,1000.43
2017-02-21T01:28:51.228Z,1000.47
2017-02-21T01:29:51.249Z,1000.39
2017-02-21T01:31:51.290Z,1000.45
2017-02-21T01:32:51.311Z,1000.48
2017-02-21T01:33:51.331Z,1000.54
2017-02-21T01:34:51.352Z,1000.61
2017-02-21T01:35:51.373Z,1000.61
2017-02-21T01:36:51.393Z,1000.61
2017-02-21T01:37:51.414Z,1000.66
2017-02-21T01:38:51.435Z,1000.65
2017-02-21T01:39:51.456Z,1000.66
2017-02-21T01:40:51.476Z,1000.7
2017-02-21T01:41:51.497Z,1000.75
2017-02-21T01:42:51.518Z,1000.77
2017-02-21T01:43:51.539Z,1000.76
2017-02-21T01:44:51.559Z,1000.71
2017-02-21T01:46:51.602Z,1000.66
2017-02-21T01:47:51.622Z,1000.75
2017-02-21T01:48:51.642Z,1000.79
2017-02-21T01:49:51.663Z,1000.77
2017-02-21T01:50:51.684Z,1000.62
2017-02-21T01:51:51.704Z,1000.74
2017-02-21T01:52:51.725Z,1000.74
2017-02-21T01:53:51.746Z,1000.67
2017-02-21T01:54:51.766Z,1000.77
2017-02-21T01:55:51.787Z,1000.79
2017-02-21T01:56:51.808Z,1000.93
2017-02-21T01:57:51.829Z,1000.83
2017-02-21T01:58:51.849Z,1000.73
2017-02-21T01:59:51.870Z,1000.84
2017-02-21T02:00:51.891Z,1000.91
2017-02-21T02:01:51.911Z,1000.87
2017-02-21T02:02:51.932Z,1000.85
2017-02-21T02:03:51.954Z,1000.82
2017-02-21T02:04:51.975Z,1000.87
2017-02-21T02:05:51.995Z,1000.87
2017-02-21T02:06:52.014Z,1000.86
2017-02-21T02:07:52.035Z,1000.89
2017-02-21T02:08:52.056Z,1000.87
2017-02-21T02:09:52.076Z,1000.81
2017-02-21T02:10:52.347Z,1000.81
2017-02-21T02:11:52.117Z,1000.76
2017-02-21T02:12:52.138Z,1000.73
2017-02-21T02:13:52.158Z,1000.69
2017-02-21T02:14:52.179Z,1000.71
2017-02-21T02:15:52.200Z,1000.71
2017-02-21T02:16:52.220Z,1000.59
2017-02-21T02:18:52.262Z,1000.53
2017-02-21T02:19:52.282Z,1000.65
2017-02-21T02:20:52.302Z,1000.68
2017-02-21T02:21:52.324Z,1000.67
2017-02-21T02:22:52.344Z,1000.65
2017-02-21T02:23:52.399Z,1000.57
2017-02-21T02:24:52.385Z,1000.66
2017-02-21T02:25:52.405Z,1000.64
2017-02-21T02:26:52.426Z,1000.65
2017-02-21T02:27:52.446Z,1000.65
2017-02-21T02:28:52.469Z,1000.68
2017-02-21T02:29:52.488Z,1000.73
2017-02-21T02:30:52.510Z,1000.7
2017-02-21T02:31:52.529Z,1000.71
2017-02-21T02:32:52.549Z,1000.67
2017-02-21T02:34:52.591Z,1000.72
2017-02-21T02:35:52.611Z,1000.76
2017-02-21T02:36:52.632Z,1000.8
2017-02-21T02:37:52.652Z,1000.81
2017-02-21T02:38:52.672Z,1000.77
2017-02-21T02:39:52.693Z,1000.73
2017-02-21T02:40:52.714Z,1000.77
2017-02-21T02:41:52.735Z,1000.78
2017-02-21T02:42:52.754Z,1000.84
2017-02-21T02:43:52.775Z,1000.9
2017-02-21T02:44:52.796Z,1000.8
2017-02-21T02:45:52.815Z,1000.84
2017-02-21T02:46:52.835Z,1000.87
2017-02-21T02:47:52.859Z,1000.94
2017-02-21T02:48:52.877Z,1000.92
2017-02-21T02:50:52.919Z,1000.93
2017-02-21T02:51:52.938Z,1000.93
2017-02-21T02:52:52.960Z,1000.87
2017-02-21T02:53:52.980Z,1000.87
2017-02-21T02:54:52.999Z,1000.85
2017-02-21T02:55:53.023Z,1000.82
2017-02-21T02:56:53.042Z,1000.83
2017-02-21T02:57:53.061Z,1000.88
2017-02-21T02:58:53.082Z,1000.86
2017-02-21T02:59:53.107Z,1000.89
2017-02-21T03:00:53.123Z,1000.88
2017-02-21T03:01:53.143Z,1000.87
2017-02-21T03:02:53.164Z,1000.85
2017-02-21T03:03:53.185Z,1000.89
2017-02-21T03:04:53.205Z,1000.88
2017-02-21T03:06:53.245Z,1000.85
2017-02-21T03:07:53.266Z,1000.91
2017-02-21T03:08:53.286Z,1000.92
2017-02-21T03:09:53.306Z,1000.91
2017-02-21T03:10:53.327Z,1000.88
2017-02-21T03:11:53.347Z,1000.9
2017-02-21T03:12:53.367Z,1000.89
2017-02-21T03:13:53.388Z,1000.92
2017-02-21T03:14:53.411Z,1000.82
2017-02-21T03:15:53.428Z,1000.91
2017-02-21T03:16:53.449Z,1000.86
2017-02-21T03:17:53.472Z,1000.87
2017-02-21T03:18:53.491Z,1000.84
2017-02-21T03:19:53.511Z,1000.84
2017-02-21T03:21:53.553Z,1000.82
2017-02-21T03:22:53.572Z,1000.82
2017-02-21T03:23:53.593Z,1000.8
2017-02-21T03:24:53.614Z,1000.82
2017-02-21T03:25:53.635Z,1000.83
2017-02-21T03:26:53.658Z,1000.74
2017-02-21T03:27:53.675Z,1000.76
2017-02-21T03:28:53.695Z,1000.74
2017-02-21T03:29:53.715Z,1000.77
2017-02-21T03:30:53.736Z,1000.78
2017-02-21T03:31:53.757Z,1000.78
2017-02-21T03:32:53.777Z,1000.79
2017-02-21T03:33:53.797Z,1000.78
2017-02-21T03:34:53.818Z,1000.82
2017-02-21T03:35:53.839Z,1000.8
2017-02-21T03:36:53.859Z,1000.84
2017-02-21T03:37:53.879Z,1000.75
2017-02-21T03:38:53.900Z,1000.71
2017-02-21T03:39:53.921Z,1000.81
2017-02-21T03:40:53.940Z,1000.79
2017-02-21T03:41:53.961Z,1000.8
2017-02-21T03:42:53.999Z,1000.79
2017-02-21T03:43:54.002Z,1000.72
2017-02-21T03:44:54.039Z,1000.74
2017-02-21T03:45:54.042Z,1000.72
2017-02-21T03:46:54.068Z,1000.7
2017-02-21T03:47:54.084Z,1000.78
2017-02-21T03:48:54.122Z,1000.84
2017-02-21T03:49:54.125Z,1000.79
2017-02-21T03:50:54.168Z,1000.82
2017-02-21T03:51:54.166Z,1000.74
2017-02-21T03:53:54.207Z,1000.85
2017-02-21T03:54:54.228Z,1000.84
2017-02-21T03:55:54.248Z,1000.85
2017-02-21T03:56:54.269Z,1000.9
2017-02-21T03:57:54.290Z,1000.86
2017-02-21T03:58:54.310Z,1000.85
2017-02-21T03:59:54.330Z,1000.82
2017-02-21T04:00:54.351Z,1000.9
2017-02-21T04:01:54.372Z,1000.8
2017-02-21T04:02:54.391Z,1000.86
2017-02-21T04:03:54.412Z,1000.89
2017-02-21T04:04:54.433Z,1000.84
2017-02-21T04:05:54.454Z,1000.93
2017-02-21T04:06:54.474Z,1000.98
2017-02-21T04:07:54.494Z,1000.92
2017-02-21T04:09:54.535Z,1000.87
2017-02-21T04:10:54.555Z,1000.9
2017-02-21T04:11:54.576Z,1000.88
2017-02-21T04:12:54.597Z,1000.9
2017-02-21T04:13:54.619Z,1001.03
2017-02-21T04:14:54.638Z,1000.99
2017-02-21T04:15:54.659Z,1000.9
2017-02-21T04:16:54.679Z,1000.96
2017-02-21T04:17:54.698Z,1000.95
2017-02-21T04:18:54.720Z,1000.89
2017-02-21T04:19:54.740Z,1000.91
2017-02-21T04:20:54.761Z,1000.97
2017-02-21T04:21:54.781Z,1000.9
2017-02-21T04:22:54.801Z,1001.03
2017-02-21T04:23:54.822Z,1000.93
2017-02-21T04:25:54.862Z,1000.95
2017-02-21T04:26:54.883Z,1000.98
2017-02-21T04:27:54.903Z,1000.94
2017-02-21T04:28:54.924Z,1000.92
2017-02-21T04:29:54.945Z,1000.94
2017-02-21T04:30:54.965Z,1000.98
2017-02-21T04:31:54.985Z,1000.98
2017-02-21T04:32:55.005Z,1000.97
2017-02-21T04:33:55.025Z,1000.97
2017-02-21T04:34:55.046Z,1000.93
2017-02-21T04:35:55.066Z,1000.98
2017-02-21T04:36:55.086Z,1000.99
2017-02-21T04:37:55.107Z,1000.96
2017-02-21T04:38:55.127Z,1000.96
2017-02-21T04:39:55.148Z,1000.92
2017-02-21T04:41:55.188Z,1000.99
2017-02-21T04:42:55.209Z,1001
2017-02-21T04:43:55.229Z,1000.98
2017-02-21T04:44:55.249Z,1001.01
2017-02-21T04:45:55.270Z,1000.98
2017-02-21T04:46:55.289Z,1000.94
2017-02-21T04:47:55.310Z,1001.03
2017-02-21T04:48:55.331Z,1000.99
2017-02-21T04:49:55.351Z,1000.97
2017-02-21T04:50:55.371Z,1001.04
2017-02-21T04:51:55.391Z,1000.94
2017-02-21T04:52:55.412Z,1000.95
2017-02-21T04:53:55.433Z,1000.95
2017-02-21T04:54:55.453Z,1000.95
2017-02-21T04:56:55.495Z,1000.94
2017-02-21T04:57:55.514Z,1001.03
2017-02-21T04:58:55.535Z,1001.03
2017-02-21T04:59:55.555Z,1001.01
2017-02-21T05:00:55.576Z,1000.97
2017-02-21T05:01:55.596Z,1001.1
2017-02-21T05:02:55.616Z,1001.06
2017-02-21T05:03:55.637Z,1001.08
2017-02-21T05:04:55.656Z,1001.06
2017-02-21T05:05:55.677Z,1001.07
2017-02-21T05:06:55.697Z,1001.12
2017-02-21T05:07:55.718Z,1001.05
2017-02-21T05:08:55.738Z,1001.06
2017-02-21T05:09:55.758Z,1001.04
2017-02-21T05:10:55.778Z,1000.95
2017-02-21T05:11:55.799Z,1001.08
2017-02-21T05:12:55.819Z,1000.96
2017-02-21T05:13:55.839Z,1001.01
2017-02-21T05:14:55.860Z,1001.01
2017-02-21T05:15:55.879Z,1000.99
2017-02-21T05:16:55.900Z,1000.97
2017-02-21T05:17:55.921Z,1000.92
2017-02-21T05:18:55.941Z,1000.92
2017-02-21T05:19:55.961Z,1000.95
2017-02-21T05:20:55.981Z,1000.89
2017-02-21T05:21:56.003Z,1000.87
2017-02-21T05:22:56.023Z,1000.87
2017-02-21T05:23:56.042Z,1000.92
2017-02-21T05:24:56.063Z,1000.9
2017-02-21T05:25:56.087Z,1001
2017-02-21T05:26:56.103Z,1000.96
2017-02-21T05:28:56.144Z,1000.98
2017-02-21T05:29:56.165Z,1000.96
2017-02-21T05:30:56.184Z,1000.96
2017-02-21T05:31:56.205Z,1000.98
2017-02-21T05:32:56.227Z,1000.98
2017-02-21T05:33:56.247Z,1000.99
2017-02-21T05:34:56.266Z,1000.96
2017-02-21T05:35:56.286Z,1000.99
2017-02-21T05:36:56.307Z,1000.94
2017-02-21T05:37:56.327Z,1000.98
2017-02-21T05:38:56.348Z,1000.91
2017-02-21T05:39:56.403Z,1000.92
2017-02-21T05:40:56.389Z,1000.94
2017-02-21T05:41:56.408Z,1001.01
2017-02-21T05:42:56.428Z,1000.93
2017-02-21T05:44:56.470Z,1000.93
2017-02-21T05:45:56.491Z,1000.91
2017-02-21T05:46:56.510Z,1000.93
2017-02-21T05:47:56.531Z,1000.92
2017-02-21T05:48:56.550Z,1000.86
2017-02-21T05:49:56.571Z,1000.89
2017-02-21T05:50:56.592Z,1000.93
2017-02-21T05:51:56.613Z,1000.92
2017-02-21T05:52:56.632Z,1000.85
2017-02-21T05:53:56.653Z,1000.81
2017-02-21T05:54:56.673Z,1000.93
2017-02-21T05:55:56.693Z,1000.9
2017-02-21T05:56:56.714Z,1000.89
2017-02-21T05:57:56.733Z,1000.85
2017-02-21T05:58:56.754Z,1000.85
2017-02-21T06:00:56.819Z,1000.92
2017-02-21T06:01:56.815Z,1000.95
2017-02-21T06:02:56.836Z,1000.94
2017-02-21T06:03:56.856Z,1000.96
2017-02-21T06:04:56.876Z,1000.94
2017-02-21T06:05:56.897Z,1000.99
2017-02-21T06:06:56.917Z,1000.95
2017-02-21T06:07:56.937Z,1000.9
2017-02-21T06:08:56.957Z,1000.91
2017-02-21T06:09:56.977Z,1001
2017-02-21T06:10:56.997Z,1001.03
2017-02-21T06:11:57.018Z,1000.99
2017-02-21T06:12:57.038Z,1001.06
2017-02-21T06:13:57.059Z,1001.07
2017-02-21T06:14:57.078Z,1001.06
2017-02-21T06:16:57.119Z,1001.22
2017-02-21T06:17:57.140Z,1001.2
2017-02-21T06:18:57.159Z,1001.22
2017-02-21T06:19:57.180Z,1001.11
2017-02-21T06:20:57.201Z,1001.18
2017-02-21T06:21:57.220Z,1001.13
2017-02-21T06:22:57.241Z,1001.22
2017-02-21T06:23:57.261Z,1001.21
2017-02-21T06:24:57.282Z,1001.27
2017-02-21T06:25:57.302Z,1001.23
2017-02-21T06:26:57.322Z,1001.18
2017-02-21T06:27:57.342Z,1001.25
2017-02-21T06:28:57.363Z,1001.21
2017-02-21T06:29:57.383Z,1001.18
2017-02-21T06:31:57.425Z,1001.14
2017-02-21T06:32:57.444Z,1001.16
2017-02-21T06:33:57.464Z,1001.09
2017-02-21T06:34:57.485Z,1001.1
2017-02-21T06:35:57.511Z,1001.16
2017-02-21T06:36:57.525Z,1001.12
2017-02-21T06:37:57.546Z,1001.17
2017-02-21T06:38:57.567Z,1001.22
2017-02-21T06:39:57.589Z,1001.17
2017-02-21T06:40:57.608Z,1001.17
2017-02-21T06:41:57.627Z,1001.13
2017-02-21T06:42:57.646Z,1001.2
2017-02-21T06:43:57.670Z,1001.21
2017-02-21T06:44:57.687Z,1001.14
2017-02-21T06:45:57.708Z,1001.12
2017-02-21T06:46:57.728Z,1001.11
2017-02-21T06:47:57.748Z,1001.18
2017-02-21T06:48:57.767Z,1001.05
2017-02-21T06:49:57.789Z,1001.08
2017-02-21T06:50:57.807Z,1001.12
2017-02-21T06:51:57.829Z,1001.11
2017-02-21T06:52:57.850Z,1001.17
2017-02-21T06:53:57.870Z,1001.1
2017-02-21T06:54:57.890Z,1001.16
2017-02-21T06:55:57.910Z,1001.17
2017-02-21T06:56:57.931Z,1001.21
2017-02-21T06:57:57.952Z,1001.24
2017-02-21T06:58:57.971Z,1001.32
2017-02-21T06:59:58.030Z,1001.29
2017-02-21T07:00:58.012Z,1001.34
2017-02-21T07:01:58.032Z,1001.31
2017-02-21T07:03:58.072Z,1001.43
2017-02-21T07:04:58.093Z,1001.38
2017-02-21T07:05:58.113Z,1001.41
2017-02-21T07:06:58.134Z,1001.33
2017-02-21T07:07:58.154Z,1001.33
2017-02-21T07:08:58.175Z,1001.37
2017-02-21T07:09:58.194Z,1001.34
2017-02-21T07:10:58.214Z,1001.28
2017-02-21T07:11:58.235Z,1001.25
2017-02-21T07:12:58.255Z,1001.23
2017-02-21T07:13:58.275Z,1001.21
2017-02-21T07:14:58.296Z,1001.14
2017-02-21T07:15:58.317Z,1001.11
2017-02-21T07:16:58.337Z,1001.1
2017-02-21T07:17:58.387Z,1001.14
2017-02-21T07:19:58.397Z,1001.13
2017-02-21T07:20:58.418Z,1001.12
2017-02-21T07:21:58.439Z,1001.16
2017-02-21T07:22:58.459Z,1001.19
2017-02-21T07:23:58.478Z,1001.22
2017-02-21T07:24:58.500Z,1001.16
2017-02-21T07:25:58.520Z,1001.21
2017-02-21T07:26:58.541Z,1001.17
2017-02-21T07:27:58.560Z,1001.15
2017-02-21T07:28:58.581Z,1001.18
2017-02-21T07:29:58.602Z,1001.09
2017-02-21T07:30:58.622Z,1001.04
2017-02-21T07:31:58.642Z,1001.03
2017-02-21T07:32:58.662Z,1000.97
2017-02-21T07:33:58.683Z,1000.89
2017-02-21T07:35:58.723Z,1000.82
2017-02-21T07:36:58.744Z,1000.85
2017-02-21T07:37:58.764Z,1000.84
2017-02-21T07:38:58.784Z,1000.9
2017-02-21T07:39:58.805Z,1000.91
2017-02-21T07:40:58.825Z,1000.93
2017-02-21T07:41:58.846Z,1000.98
2017-02-21T07:42:58.865Z,1000.99
2017-02-21T07:43:58.887Z,1001.02
2017-02-21T07:44:58.907Z,1001.03
2017-02-21T07:45:58.927Z,1001.05
2017-02-21T07:46:58.947Z,1001.06
2017-02-21T07:47:58.968Z,1001.08
2017-02-21T07:48:58.989Z,1001.01
2017-02-21T07:49:59.009Z,1001.03
2017-02-21T07:51:59.050Z,1001.04
2017-02-21T07:52:59.071Z,1001.09
2017-02-21T07:53:59.091Z,1001.02
2017-02-21T07:54:59.110Z,1001.05
2017-02-21T07:55:59.132Z,1001.04
2017-02-21T07:56:59.151Z,1001.01
2017-02-21T07:57:59.173Z,1001.12
2017-02-21T07:58:59.193Z,1001.02
2017-02-21T07:59:59.216Z,1001.03
2017-02-21T08:00:59.234Z,1001.03
2017-02-21T08:01:59.255Z,1001.03
2017-02-21T08:02:59.275Z,1001.09
2017-02-21T08:03:59.296Z,1001.09
2017-02-21T08:04:59.317Z,1001.11
2017-02-21T08:06:59.361Z,1001.22
2017-02-21T08:07:59.378Z,1001.1
2017-02-21T08:08:59.399Z,1001.12
2017-02-21T08:09:59.419Z,1001.15
2017-02-21T08:10:59.440Z,1001.17
2017-02-21T08:11:59.460Z,1001.09
2017-02-21T08:12:59.481Z,1001.13
2017-02-21T08:13:59.502Z,1001.12
2017-02-21T08:14:59.521Z,1001.18
2017-02-21T08:15:59.542Z,1001.1
2017-02-21T08:16:59.563Z,1001.13
2017-02-21T08:17:59.583Z,1001.09
2017-02-21T08:18:59.603Z,1001.15
2017-02-21T08:19:59.624Z,1001.16
2017-02-21T08:20:59.644Z,1001.13
2017-02-21T08:21:59.665Z,1001.14
2017-02-21T08:22:59.686Z,1001.12
2017-02-21T08:23:59.705Z,1001.13
2017-02-21T08:24:59.726Z,1001.12
2017-02-21T08:25:59.747Z,1001.13
2017-02-21T08:26:59.766Z,1001.16
2017-02-21T08:27:59.787Z,1001.14
2017-02-21T08:28:59.807Z,1001.18
2017-02-21T08:29:59.827Z,1001.17
2017-02-21T08:30:59.847Z,1001.19
2017-02-21T08:31:59.868Z,1001.17
2017-02-21T08:32:59.889Z,1001.16
2017-02-21T08:33:59.908Z,1001.18
2017-02-21T08:34:59.928Z,1001.18
2017-02-21T08:35:59.949Z,1001.17
2017-02-21T08:36:59.969Z,1001.14
2017-02-21T08:39:00.010Z,1001.15
2017-02-21T08:40:00.030Z,1001.33
2017-02-21T08:41:00.049Z,1001.27
2017-02-21T08:42:00.070Z,1001.23
2017-02-21T08:43:00.090Z,1001.31
2017-02-21T08:44:00.111Z,1001.16
2017-02-21T08:45:00.130Z,1001.14
2017-02-21T08:46:00.151Z,1001.14
2017-02-21T08:47:00.171Z,1001.18
2017-02-21T08:48:00.191Z,1001.13
2017-02-21T08:49:00.211Z,1001.18
2017-02-21T08:50:00.232Z,1001.16
2017-02-21T08:51:00.251Z,1001.14
2017-02-21T08:52:00.271Z,1001.1
2017-02-21T08:53:00.292Z,1001.13
2017-02-21T08:55:00.332Z,1001.18
2017-02-21T08:56:00.352Z,1001.23
2017-02-21T08:57:00.372Z,1001.25
2017-02-21T08:58:00.393Z,1001.18
2017-02-21T08:59:00.462Z,1001.24
2017-02-21T09:00:00.432Z,1001.17
2017-02-21T09:01:00.453Z,1001.16
2017-02-21T09:02:00.473Z,1001.18
2017-02-21T09:03:00.493Z,1001.14
2017-02-21T09:04:00.514Z,1001.19
2017-02-21T09:05:00.534Z,1001.13
2017-02-21T09:06:00.554Z,1001.18
2017-02-21T09:07:00.573Z,1001.26
2017-02-21T09:08:00.594Z,1001.27
2017-02-21T09:09:00.614Z,1001.25
2017-02-21T09:11:00.654Z,1001.42
2017-02-21T09:12:00.674Z,1001.33
2017-02-21T09:13:00.695Z,1001.4
2017-02-21T09:14:00.714Z,1001.39
2017-02-21T09:15:00.735Z,1001.46
2017-02-21T09:16:00.755Z,1001.48
2017-02-21T09:17:00.775Z,1001.55
2017-02-21T09:18:00.795Z,1001.52
2017-02-21T09:19:00.815Z,1001.53
2017-02-21T09:20:00.835Z,1001.48
2017-02-21T09:21:00.854Z,1001.49
2017-02-21T09:22:00.875Z,1001.47
2017-02-21T09:23:00.896Z,1001.47
2017-02-21T09:24:00.915Z,1001.53
2017-02-21T09:25:00.935Z,1001.57
2017-02-21T09:27:00.975Z,1001.55
2017-02-21T09:28:00.996Z,1001.53
2017-02-21T09:29:01.016Z,1001.52
2017-02-21T09:30:01.035Z,1001.57
2017-02-21T09:31:01.056Z,1001.57
2017-02-21T09:32:01.074Z,1001.59
2017-02-21T09:33:01.095Z,1001.62
2017-02-21T09:34:01.115Z,1001.61
2017-02-21T09:35:01.135Z,1001.6
2017-02-21T09:36:01.155Z,1001.59
2017-02-21T09:37:01.175Z,1001.6
2017-02-21T09:38:01.195Z,1001.63
2017-02-21T09:39:01.216Z,1001.69
2017-02-21T09:40:01.236Z,1001.62
2017-02-21T09:42:01.276Z,1001.82
2017-02-21T09:43:01.296Z,1001.76
2017-02-21T09:44:01.316Z,1001.81
2017-02-21T09:45:01.336Z,1001.83
2017-02-21T09:46:01.357Z,1001.9
2017-02-21T09:47:01.376Z,1001.87
2017-02-21T09:48:01.396Z,1001.89
2017-02-21T09:49:01.416Z,1001.87
2017-02-21T09:50:01.436Z,1001.87
2017-02-21T09:51:01.456Z,1001.9
2017-02-21T09:52:01.477Z,1001.88
2017-02-21T09:53:01.497Z,1001.88
2017-02-21T09:54:01.517Z,1001.93
2017-02-21T09:55:01.537Z,1001.91
2017-02-21T09:56:01.558Z,1002.04
2017-02-21T09:57:01.578Z,1001.96
2017-02-21T09:58:01.598Z,1002.01
2017-02-21T09:59:01.619Z,1002
2017-02-21T10:00:01.639Z,1002.03
2017-02-21T10:01:01.659Z,1002
2017-02-21T10:02:01.680Z,1002.13
2017-02-21T10:03:01.700Z,1002.13
2017-02-21T10:04:01.720Z,1002.1
2017-02-21T10:05:01.741Z,1002.19
2017-02-21T10:06:01.761Z,1002.25
2017-02-21T10:07:01.781Z,1002.32
2017-02-21T10:08:01.802Z,1002.33
2017-02-21T10:09:01.824Z,1002.38
2017-02-21T10:10:01.842Z,1002.52
2017-02-21T10:11:01.863Z,1002.56
2017-02-21T10:12:01.883Z,1002.54
2017-02-21T10:14:01.923Z,1002.59
2017-02-21T10:15:01.945Z,1002.62
2017-02-21T10:16:01.967Z,1002.69
2017-02-21T10:17:01.983Z,1002.58
2017-02-21T10:18:02.003Z,1002.58
2017-02-21T10:19:02.024Z,1002.55
2017-02-21T10:20:02.044Z,1002.57
2017-02-21T10:21:02.063Z,1002.55
2017-02-21T10:22:02.086Z,1002.59
2017-02-21T10:23:02.103Z,1002.55
2017-02-21T10:24:02.123Z,1002.65
2017-02-21T10:25:02.143Z,1002.64
2017-02-21T10:26:02.163Z,1002.66
2017-02-21T10:27:02.182Z,1002.65
2017-02-21T10:28:02.202Z,1002.68
2017-02-21T10:30:02.244Z,1002.74
2017-02-21T10:31:02.262Z,1002.85
2017-02-21T10:32:02.282Z,1002.85
2017-02-21T10:33:02.302Z,1002.8
2017-02-21T10:34:02.321Z,1002.81
2017-02-21T10:35:02.341Z,1002.77
2017-02-21T10:36:02.362Z,1002.94
2017-02-21T10:37:02.381Z,1002.93
2017-02-21T10:38:02.401Z,1002.93
2017-02-21T10:39:02.452Z,1002.99
2017-02-21T10:40:02.442Z,1002.88
2017-02-21T10:41:02.497Z,1002.87
2017-02-21T10:42:02.480Z,1002.94
2017-02-21T10:43:02.502Z,1002.79
2017-02-21T10:44:02.521Z,1002.87
2017-02-21T10:46:02.561Z,1002.87
2017-02-21T10:47:02.581Z,1002.88
2017-02-21T10:48:02.602Z,1002.86
2017-02-21T10:49:02.621Z,1002.87
2017-02-21T10:50:02.641Z,1002.86
2017-02-21T10:51:02.662Z,1002.81
2017-02-21T10:52:02.682Z,1002.81
2017-02-21T10:53:02.701Z,1002.8
2017-02-21T10:54:02.722Z,1002.84
2017-02-21T10:55:02.743Z,1002.67
2017-02-21T10:56:02.762Z,1002.82
2017-02-21T10:57:02.782Z,1002.84
2017-02-21T10:58:02.802Z,1002.83
2017-02-21T10:59:02.823Z,1002.78
2017-02-21T11:00:02.841Z,1002.77
2017-02-21T11:02:02.884Z,1003.07
2017-02-21T11:03:02.904Z,1002.74
2017-02-21T11:04:02.925Z,1002.82
2017-02-21T11:05:02.943Z,1002.77
2017-02-21T11:06:02.965Z,1002.78
2017-02-21T11:07:02.983Z,1002.87
2017-02-21T11:08:03.005Z,1002.81
2017-02-21T11:09:03.028Z,1002.72
2017-02-21T11:10:03.045Z,1002.97
2017-02-21T11:11:03.065Z,1002.85
2017-02-21T11:12:03.086Z,1003.03
2017-02-21T11:13:03.107Z,1002.73
2017-02-21T11:14:03.127Z,1002.76
2017-02-21T11:15:03.146Z,1002.85
2017-02-21T11:17:03.189Z,1002.86
2017-02-21T11:18:03.208Z,1002.88
2017-02-21T11:19:03.229Z,1002.75
2017-02-21T11:20:03.248Z,1002.84
2017-02-21T11:21:03.271Z,1002.88
2017-02-21T11:22:03.291Z,1002.96
2017-02-21T11:23:03.310Z,1003.08
2017-02-21T11:24:03.331Z,1002.97
2017-02-21T11:25:03.350Z,1002.94
2017-02-21T11:26:03.372Z,1002.92
2017-02-21T11:27:03.392Z,1003.02
2017-02-21T11:28:03.413Z,1002.9
2017-02-21T11:29:03.432Z,1002.97
2017-02-21T11:30:03.453Z,1003.02
2017-02-21T11:31:03.474Z,1003.02
2017-02-21T11:32:03.496Z,1002.99
2017-02-21T11:33:03.515Z,1002.96
2017-02-21T11:34:03.536Z,1003.03
2017-02-21T11:35:03.556Z,1003.05
2017-02-21T11:36:03.577Z,1003.14
2017-02-21T11:37:03.600Z,1003.05
2017-02-21T11:38:03.619Z,1003.06
2017-02-21T11:39:03.640Z,1003.14
2017-02-21T11:40:03.660Z,1003.16
2017-02-21T11:41:03.681Z,1003.28
2017-02-21T11:42:03.701Z,1003.24
2017-02-21T11:43:03.723Z,1003.2
2017-02-21T11:44:03.744Z,1003.23
2017-02-21T11:45:03.764Z,1003.14
2017-02-21T11:46:03.786Z,1003.21
2017-02-21T11:47:03.807Z,1003.13
2017-02-21T11:49:03.849Z,1003.11
2017-02-21T11:50:03.871Z,1003.17
2017-02-21T11:51:03.891Z,1003.12
2017-02-21T11:52:03.912Z,1003.06
2017-02-21T11:53:03.933Z,1003.15
2017-02-21T11:54:03.955Z,1003.16
2017-02-21T11:55:03.976Z,1003.02
2017-02-21T11:56:03.997Z,1003.23
2017-02-21T11:57:04.019Z,1003.33
2017-02-21T11:58:04.039Z,1003.32
2017-02-21T11:59:04.061Z,1003.23
2017-02-21T12:00:04.082Z,1003.29
2017-02-21T12:01:04.104Z,1003.25
2017-02-21T12:02:04.125Z,1003.25
2017-02-21T12:03:04.147Z,1003.17
2017-02-21T12:05:04.191Z,1003.15
2017-02-21T12:06:04.211Z,1003.22
2017-02-21T12:07:04.234Z,1003.27
2017-02-21T12:08:04.255Z,1003.23
2017-02-21T12:09:04.275Z,1003.28
2017-02-21T12:10:04.297Z,1003.13
2017-02-21T12:11:04.319Z,1003.14
2017-02-21T12:12:04.341Z,1003.2
2017-02-21T12:13:04.365Z,1003.21
2017-02-21T12:14:04.384Z,1003.19
2017-02-21T12:15:04.404Z,1003.19
2017-02-21T12:16:04.426Z,1003.26
2017-02-21T12:17:04.448Z,1003.17
2017-02-21T12:18:04.470Z,1003.13
2017-02-21T12:19:04.491Z,1003.18
2017-02-21T12:21:04.534Z,1003.16
2017-02-21T12:22:04.555Z,1003.18
2017-02-21T12:23:04.577Z,1003.21
2017-02-21T12:24:04.598Z,1003.26
2017-02-21T12:25:04.619Z,1003.25
2017-02-21T12:26:04.641Z,1003.25
2017-02-21T12:27:04.664Z,1003.12
2017-02-21T12:28:04.684Z,1003.23
2017-02-21T12:29:04.705Z,1003.27
2017-02-21T12:30:04.727Z,1003.16
2017-02-21T12:31:04.748Z,1003.31
2017-02-21T12:32:04.769Z,1003.27
2017-02-21T12:33:04.791Z,1003.25
2017-02-21T12:34:04.812Z,1003.32
2017-02-21T12:35:04.833Z,1003.13
2017-02-21T12:37:04.876Z,1003.21
2017-02-21T12:38:04.898Z,1003.13
2017-02-21T12:39:04.918Z,1003.34
2017-02-21T12:40:04.940Z,1003.15
2017-02-21T12:41:04.961Z,1003.13
2017-02-21T12:42:04.982Z,1003.17
2017-02-21T12:43:05.003Z,1003.06
2017-02-21T12:44:05.025Z,1003.03
2017-02-21T12:45:05.046Z,1003.06
2017-02-21T12:46:05.066Z,1003.1
2017-02-21T12:47:05.088Z,1003.04
2017-02-21T12:48:05.109Z,1003.2